sensor_id;sensor_type;location;lat;lon;timestamp;temperature;humidity
41922;DHT22;27609;51.002;5.354;2023-02-26T00:00:03;0.40;99.90
41922;DHT22;27609;51.002;5.354;2023-02-26T00:02:32;0.40;99.90
41922;DHT22;27609;51.002;5.354;2023-02-26T00:04:58;0.50;99.90
41922;DHT22;27609;51.002;5.354;2023-02-26T00:07:24;0.40;99.90
41922;DHT22;27609;51.002;5.354;2023-02-26T00:09:53;0.40;99.90
41922;DHT22;27609;51.002;5.354;2023-02-26T00:12:19;0.90;99.90
41922;DHT22;27609;51.002;5.354;2023-02-26T00:14:46;0.40;99.90
41922;DHT22;27609;51.002;5.354;2023-02-26T00:19:59;0.40;99.90
41922;DHT22;27609;51.002;5.354;2023-02-26T00:22:25;0.40;99.90
41922;DHT22;27609;51.002;5.354;2023-02-26T00:24:51;0.40;99.90
41922;DHT22;27609;51.002;5.354;2023-02-26T00:27:17;0.40;99.90
41922;DHT22;27609;51.002;5.354;2023-02-26T00:29:43;0.40;99.90
41922;DHT22;27609;51.002;5.354;2023-02-26T00:32:09;0.40;99.90
41922;DHT22;27609;51.002;5.354;2023-02-26T00:34:35;0.30;99.90
41922;DHT22;27609;51.002;5.354;2023-02-26T00:37:22;0.30;99.90
41922;DHT22;27609;51.002;5.354;2023-02-26T00:42:55;0.30;99.90
41922;DHT22;27609;51.002;5.354;2023-02-26T00:45:21;0.30;99.90
41922;DHT22;27609;51.002;5.354;2023-02-26T00:48:15;0.30;99.90
41922;DHT22;27609;51.002;5.354;2023-02-26T00:51:01;0.20;99.90
41922;DHT22;27609;51.002;5.354;2023-02-26T00:53:35;0.20;99.90
41922;DHT22;27609;51.002;5.354;2023-02-26T00:56:02;0.20;99.90
41922;DHT22;27609;51.002;5.354;2023-02-26T00:58:27;0.20;99.90
41922;DHT22;27609;51.002;5.354;2023-02-26T01:00:53;0.30;99.90
41922;DHT22;27609;51.002;5.354;2023-02-26T01:03:19;1.00;99.90
41922;DHT22;27609;51.002;5.354;2023-02-26T01:05:45;0.20;99.90
41922;DHT22;27609;51.002;5.354;2023-02-26T01:08:23;0.20;99.90
41922;DHT22;27609;51.002;5.354;2023-02-26T01:10:49;0.20;99.90
41922;DHT22;27609;51.002;5.354;2023-02-26T01:13:15;0.20;99.90
41922;DHT22;27609;51.002;5.354;2023-02-26T01:15:44;0.20;99.90
41922;DHT22;27609;51.002;5.354;2023-02-26T01:18:18;0.30;99.90
41922;DHT22;27609;51.002;5.354;2023-02-26T01:20:54;0.60;99.90
41922;DHT22;27609;51.002;5.354;2023-02-26T01:23:26;0.20;99.90
41922;DHT22;27609;51.002;5.354;2023-02-26T01:28:22;0.30;99.90
41922;DHT22;27609;51.002;5.354;2023-02-26T01:30:49;0.20;99.90
41922;DHT22;27609;51.002;5.354;2023-02-26T01:33:34;0.20;99.90
41922;DHT22;27609;51.002;5.354;2023-02-26T01:36:07;0.10;99.90
41922;DHT22;27609;51.002;5.354;2023-02-26T01:49:24;0.60;99.90
41922;DHT22;27609;51.002;5.354;2023-02-26T01:51:55;0.70;99.90
41922;DHT22;27609;51.002;5.354;2023-02-26T01:54:37;0.80;99.90
41922;DHT22;27609;51.002;5.354;2023-02-26T01:57:21;0.80;99.90
41922;DHT22;27609;51.002;5.354;2023-02-26T01:59:49;0.80;99.90
41922;DHT22;27609;51.002;5.354;2023-02-26T02:02:19;1.00;99.90
41922;DHT22;27609;51.002;5.354;2023-02-26T02:04:46;1.30;99.90
41922;DHT22;27609;51.002;5.354;2023-02-26T02:07:12;1.00;99.90
41922;DHT22;27609;51.002;5.354;2023-02-26T02:09:38;0.90;99.90
41922;DHT22;27609;51.002;5.354;2023-02-26T02:12:29;0.80;99.90
41922;DHT22;27609;51.002;5.354;2023-02-26T02:23:18;1.00;99.90
41922;DHT22;27609;51.002;5.354;2023-02-26T02:28:58;0.90;99.90
41922;DHT22;27609;51.002;5.354;2023-02-26T02:34:05;0.80;99.90
41922;DHT22;27609;51.002;5.354;2023-02-26T02:39:31;0.90;99.90
41922;DHT22;27609;51.002;5.354;2023-02-26T02:42:18;1.00;99.90
41922;DHT22;27609;51.002;5.354;2023-02-26T02:44:51;1.30;99.90
41922;DHT22;27609;51.002;5.354;2023-02-26T02:47:19;0.80;99.90
41922;DHT22;27609;51.002;5.354;2023-02-26T02:50:19;0.90;99.90
41922;DHT22;27609;51.002;5.354;2023-02-26T02:53:23;1.30;99.90
41922;DHT22;27609;51.002;5.354;2023-02-26T02:56:04;0.80;99.90
41922;DHT22;27609;51.002;5.354;2023-02-26T02:58:35;0.80;99.90
41922;DHT22;27609;51.002;5.354;2023-02-26T03:01:05;1.60;99.90
41922;DHT22;27609;51.002;5.354;2023-02-26T03:06:09;0.70;99.90
41922;DHT22;27609;51.002;5.354;2023-02-26T03:08:37;0.60;99.90
41922;DHT22;27609;51.002;5.354;2023-02-26T03:11:05;0.60;99.90
41922;DHT22;27609;51.002;5.354;2023-02-26T03:13:31;0.80;99.90
41922;DHT22;27609;51.002;5.354;2023-02-26T03:24:37;0.60;99.90
41922;DHT22;27609;51.002;5.354;2023-02-26T03:27:33;0.50;99.90
41922;DHT22;27609;51.002;5.354;2023-02-26T03:32:48;0.50;99.90
41922;DHT22;27609;51.002;5.354;2023-02-26T03:35:20;0.50;99.90
41922;DHT22;27609;51.002;5.354;2023-02-26T03:37:51;0.50;99.90
41922;DHT22;27609;51.002;5.354;2023-02-26T03:43:30;0.50;99.90
41922;DHT22;27609;51.002;5.354;2023-02-26T03:46:01;0.50;99.90
41922;DHT22;27609;51.002;5.354;2023-02-26T03:48:29;0.50;99.90
41922;DHT22;27609;51.002;5.354;2023-02-26T03:50:59;1.30;99.90
41922;DHT22;27609;51.002;5.354;2023-02-26T03:53:30;0.50;99.90
41922;DHT22;27609;51.002;5.354;2023-02-26T03:56:14;1.00;99.90
41922;DHT22;27609;51.002;5.354;2023-02-26T03:58:41;0.60;99.90
41922;DHT22;27609;51.002;5.354;2023-02-26T04:01:10;0.70;99.90
41922;DHT22;27609;51.002;5.354;2023-02-26T04:03:46;0.60;99.90
41922;DHT22;27609;51.002;5.354;2023-02-26T04:06:13;0.60;99.90
41922;DHT22;27609;51.002;5.354;2023-02-26T04:08:39;0.40;99.90
41922;DHT22;27609;51.002;5.354;2023-02-26T04:11:12;1.10;99.90
41922;DHT22;27609;51.002;5.354;2023-02-26T04:13:41;0.80;99.90
41922;DHT22;27609;51.002;5.354;2023-02-26T04:16:07;0.70;99.90
41922;DHT22;27609;51.002;5.354;2023-02-26T04:18:32;0.90;99.90
41922;DHT22;27609;51.002;5.354;2023-02-26T04:20:58;0.80;99.90
41922;DHT22;27609;51.002;5.354;2023-02-26T04:23:24;0.30;99.90
41922;DHT22;27609;51.002;5.354;2023-02-26T04:25:49;0.30;99.90
41922;DHT22;27609;51.002;5.354;2023-02-26T04:28:15;0.20;99.90
41922;DHT22;27609;51.002;5.354;2023-02-26T04:30:41;0.20;99.90
41922;DHT22;27609;51.002;5.354;2023-02-26T04:33:07;0.20;99.90
41922;DHT22;27609;51.002;5.354;2023-02-26T04:35:33;0.80;99.90
41922;DHT22;27609;51.002;5.354;2023-02-26T04:37:58;0.30;99.90
41922;DHT22;27609;51.002;5.354;2023-02-26T04:40:24;0.10;99.90
41922;DHT22;27609;51.002;5.354;2023-02-26T04:42:50;0.90;99.90
41922;DHT22;27609;51.002;5.354;2023-02-26T04:45:16;0.00;99.90
41922;DHT22;27609;51.002;5.354;2023-02-26T04:47:42;0.60;99.90
41922;DHT22;27609;51.002;5.354;2023-02-26T04:50:08;1.00;99.90
41922;DHT22;27609;51.002;5.354;2023-02-26T04:52:34;0.00;99.90
41922;DHT22;27609;51.002;5.354;2023-02-26T04:55:00;0.00;99.90
41922;DHT22;27609;51.002;5.354;2023-02-26T04:57:26;0.90;99.90
41922;DHT22;27609;51.002;5.354;2023-02-26T04:59:51;0.00;99.90
41922;DHT22;27609;51.002;5.354;2023-02-26T05:02:17;0.90;99.90
41922;DHT22;27609;51.002;5.354;2023-02-26T05:04:43;0.00;99.90
41922;DHT22;27609;51.002;5.354;2023-02-26T05:07:09;0.50;99.90
41922;DHT22;27609;51.002;5.354;2023-02-26T05:09:35;0.00;99.90
41922;DHT22;27609;51.002;5.354;2023-02-26T05:12:00;0.00;99.90
41922;DHT22;27609;51.002;5.354;2023-02-26T05:14:26;0.10;99.90
41922;DHT22;27609;51.002;5.354;2023-02-26T05:16:52;0.70;99.90
41922;DHT22;27609;51.002;5.354;2023-02-26T05:19:17;1.10;99.90
41922;DHT22;27609;51.002;5.354;2023-02-26T05:21:43;0.20;99.90
41922;DHT22;27609;51.002;5.354;2023-02-26T05:24:09;0.40;99.90
41922;DHT22;27609;51.002;5.354;2023-02-26T05:26:35;0.70;99.90
41922;DHT22;27609;51.002;5.354;2023-02-26T05:29:00;0.60;99.90
41922;DHT22;27609;51.002;5.354;2023-02-26T05:31:26;0.10;99.90
41922;DHT22;27609;51.002;5.354;2023-02-26T05:33:53;0.80;99.90
41922;DHT22;27609;51.002;5.354;2023-02-26T05:36:18;0.70;99.90
41922;DHT22;27609;51.002;5.354;2023-02-26T05:38:44;0.30;99.90
41922;DHT22;27609;51.002;5.354;2023-02-26T05:41:10;0.70;99.90
41922;DHT22;27609;51.002;5.354;2023-02-26T05:43:36;0.60;99.90
41922;DHT22;27609;51.002;5.354;2023-02-26T05:46:01;-0.20;99.90
41922;DHT22;27609;51.002;5.354;2023-02-26T05:48:27;-0.20;99.90
41922;DHT22;27609;51.002;5.354;2023-02-26T05:50:53;-0.20;99.90
41922;DHT22;27609;51.002;5.354;2023-02-26T05:53:19;-0.30;99.90
41922;DHT22;27609;51.002;5.354;2023-02-26T05:55:45;0.60;99.90
41922;DHT22;27609;51.002;5.354;2023-02-26T05:58:10;0.40;99.90
41922;DHT22;27609;51.002;5.354;2023-02-26T06:00:36;0.40;99.90
41922;DHT22;27609;51.002;5.354;2023-02-26T06:03:02;-0.30;99.90
41922;DHT22;27609;51.002;5.354;2023-02-26T06:05:28;-0.40;99.90
41922;DHT22;27609;51.002;5.354;2023-02-26T06:07:53;0.60;99.90
41922;DHT22;27609;51.002;5.354;2023-02-26T06:10:19;0.30;99.90
41922;DHT22;27609;51.002;5.354;2023-02-26T06:12:45;-0.30;99.90
41922;DHT22;27609;51.002;5.354;2023-02-26T06:15:10;0.40;99.90
41922;DHT22;27609;51.002;5.354;2023-02-26T06:17:37;-0.30;99.90
41922;DHT22;27609;51.002;5.354;2023-02-26T06:20:04;-0.30;99.90
41922;DHT22;27609;51.002;5.354;2023-02-26T06:22:30;-0.30;99.90
41922;DHT22;27609;51.002;5.354;2023-02-26T06:24:56;-0.30;99.90
41922;DHT22;27609;51.002;5.354;2023-02-26T06:27:22;-0.40;99.90
41922;DHT22;27609;51.002;5.354;2023-02-26T06:29:48;0.20;99.90
41922;DHT22;27609;51.002;5.354;2023-02-26T06:32:13;0.00;99.90
41922;DHT22;27609;51.002;5.354;2023-02-26T06:34:39;0.20;99.90
41922;DHT22;27609;51.002;5.354;2023-02-26T06:37:05;-0.10;99.90
41922;DHT22;27609;51.002;5.354;2023-02-26T06:39:31;0.10;99.90
41922;DHT22;27609;51.002;5.354;2023-02-26T06:41:57;-0.10;99.90
41922;DHT22;27609;51.002;5.354;2023-02-26T06:44:23;0.40;99.90
41922;DHT22;27609;51.002;5.354;2023-02-26T06:46:49;0.60;99.90
41922;DHT22;27609;51.002;5.354;2023-02-26T06:49:14;-0.10;99.90
41922;DHT22;27609;51.002;5.354;2023-02-26T06:51:40;-0.20;99.90
41922;DHT22;27609;51.002;5.354;2023-02-26T06:54:06;0.20;99.90
41922;DHT22;27609;51.002;5.354;2023-02-26T06:56:31;0.30;99.90
41922;DHT22;27609;51.002;5.354;2023-02-26T06:58:57;0.70;99.90
41922;DHT22;27609;51.002;5.354;2023-02-26T07:01:23;0.80;99.90
41922;DHT22;27609;51.002;5.354;2023-02-26T07:03:49;0.90;99.90
41922;DHT22;27609;51.002;5.354;2023-02-26T07:06:15;1.80;99.90
41922;DHT22;27609;51.002;5.354;2023-02-26T07:08:41;2.00;99.90
41922;DHT22;27609;51.002;5.354;2023-02-26T07:11:07;2.90;99.90
41922;DHT22;27609;51.002;5.354;2023-02-26T07:13:37;2.80;99.90
41922;DHT22;27609;51.002;5.354;2023-02-26T07:16:06;3.30;99.90
41922;DHT22;27609;51.002;5.354;2023-02-26T07:18:36;4.00;99.90
41922;DHT22;27609;51.002;5.354;2023-02-26T07:21:02;4.60;99.90
41922;DHT22;27609;51.002;5.354;2023-02-26T07:23:28;4.80;99.90
41922;DHT22;27609;51.002;5.354;2023-02-26T07:25:54;5.10;99.90
41922;DHT22;27609;51.002;5.354;2023-02-26T07:28:21;5.10;99.90
41922;DHT22;27609;51.002;5.354;2023-02-26T07:30:47;5.50;99.90
41922;DHT22;27609;51.002;5.354;2023-02-26T07:33:12;6.10;99.90
41922;DHT22;27609;51.002;5.354;2023-02-26T07:35:38;5.90;99.90
41922;DHT22;27609;51.002;5.354;2023-02-26T07:38:04;6.50;99.90
41922;DHT22;27609;51.002;5.354;2023-02-26T07:40:30;6.30;99.90
41922;DHT22;27609;51.002;5.354;2023-02-26T07:42:55;6.80;99.90
41922;DHT22;27609;51.002;5.354;2023-02-26T07:45:21;7.40;99.90
41922;DHT22;27609;51.002;5.354;2023-02-26T07:47:48;7.60;99.90
41922;DHT22;27609;51.002;5.354;2023-02-26T07:50:14;7.80;99.90
41922;DHT22;27609;51.002;5.354;2023-02-26T07:52:39;7.80;99.90
41922;DHT22;27609;51.002;5.354;2023-02-26T07:55:07;8.80;99.90
41922;DHT22;27609;51.002;5.354;2023-02-26T07:57:33;8.40;99.90
41922;DHT22;27609;51.002;5.354;2023-02-26T07:59:59;8.30;99.90
41922;DHT22;27609;51.002;5.354;2023-02-26T08:02:24;8.40;99.90
41922;DHT22;27609;51.002;5.354;2023-02-26T08:04:50;8.70;99.90
41922;DHT22;27609;51.002;5.354;2023-02-26T08:07:16;8.80;99.90
41922;DHT22;27609;51.002;5.354;2023-02-26T08:09:42;9.00;99.90
41922;DHT22;27609;51.002;5.354;2023-02-26T08:12:08;10.10;99.90
41922;DHT22;27609;51.002;5.354;2023-02-26T08:14:34;9.50;99.90
41922;DHT22;27609;51.002;5.354;2023-02-26T08:16:59;9.70;99.90
41922;DHT22;27609;51.002;5.354;2023-02-26T08:19:25;9.50;99.90
41922;DHT22;27609;51.002;5.354;2023-02-26T08:21:50;8.80;99.90
41922;DHT22;27609;51.002;5.354;2023-02-26T08:24:16;9.50;99.90
41922;DHT22;27609;51.002;5.354;2023-02-26T08:26:42;10.70;99.90
41922;DHT22;27609;51.002;5.354;2023-02-26T08:29:08;12.00;99.20
41922;DHT22;27609;51.002;5.354;2023-02-26T08:31:34;11.70;98.10
41922;DHT22;27609;51.002;5.354;2023-02-26T08:34:00;11.30;98.30
41922;DHT22;27609;51.002;5.354;2023-02-26T08:36:26;11.20;98.30
41922;DHT22;27609;51.002;5.354;2023-02-26T08:38:52;12.00;97.20
41922;DHT22;27609;51.002;5.354;2023-02-26T08:41:17;12.80;97.40
41922;DHT22;27609;51.002;5.354;2023-02-26T08:43:43;13.00;96.10
41922;DHT22;27609;51.002;5.354;2023-02-26T08:46:09;13.40;96.10
41922;DHT22;27609;51.002;5.354;2023-02-26T08:48:35;13.30;95.20
41922;DHT22;27609;51.002;5.354;2023-02-26T08:51:01;12.70;95.40
41922;DHT22;27609;51.002;5.354;2023-02-26T08:53:27;12.80;94.90
41922;DHT22;27609;51.002;5.354;2023-02-26T08:55:53;12.40;95.20
41922;DHT22;27609;51.002;5.354;2023-02-26T08:58:19;11.00;96.70
41922;DHT22;27609;51.002;5.354;2023-02-26T09:00:45;11.40;96.50
41922;DHT22;27609;51.002;5.354;2023-02-26T09:03:11;12.10;96.40
41922;DHT22;27609;51.002;5.354;2023-02-26T09:05:37;12.50;94.80
41922;DHT22;27609;51.002;5.354;2023-02-26T09:08:03;13.30;94.30
41922;DHT22;27609;51.002;5.354;2023-02-26T09:10:29;13.80;94.00
41922;DHT22;27609;51.002;5.354;2023-02-26T09:12:55;14.00;93.60
41922;DHT22;27609;51.002;5.354;2023-02-26T09:15:21;12.80;94.40
41922;DHT22;27609;51.002;5.354;2023-02-26T09:17:47;11.30;95.40
41922;DHT22;27609;51.002;5.354;2023-02-26T09:20:13;12.20;95.40
41922;DHT22;27609;51.002;5.354;2023-02-26T09:22:40;13.10;94.60
41922;DHT22;27609;51.002;5.354;2023-02-26T09:25:06;14.00;93.70
41922;DHT22;27609;51.002;5.354;2023-02-26T09:27:33;14.40;93.00
41922;DHT22;27609;51.002;5.354;2023-02-26T09:30:00;15.10;90.90
41922;DHT22;27609;51.002;5.354;2023-02-26T09:32:25;13.20;92.60
41922;DHT22;27609;51.002;5.354;2023-02-26T09:34:51;12.30;94.20
41922;DHT22;27609;51.002;5.354;2023-02-26T09:37:17;14.30;92.10
41922;DHT22;27609;51.002;5.354;2023-02-26T09:39:43;15.50;90.20
41922;DHT22;27609;51.002;5.354;2023-02-26T09:42:33;14.00;91.90
41922;DHT22;27609;51.002;5.354;2023-02-26T09:45:06;14.00;91.50
41922;DHT22;27609;51.002;5.354;2023-02-26T09:47:43;14.90;90.20
41922;DHT22;27609;51.002;5.354;2023-02-26T09:50:53;14.50;90.70
41922;DHT22;27609;51.002;5.354;2023-02-26T09:53:25;14.30;90.90
41922;DHT22;27609;51.002;5.354;2023-02-26T09:55:55;14.40;90.50
41922;DHT22;27609;51.002;5.354;2023-02-26T09:58:33;15.00;90.60
41922;DHT22;27609;51.002;5.354;2023-02-26T10:06:24;15.50;90.10
41922;DHT22;27609;51.002;5.354;2023-02-26T10:09:20;16.80;86.50
41922;DHT22;27609;51.002;5.354;2023-02-26T10:12:04;16.90;85.80
41922;DHT22;27609;51.002;5.354;2023-02-26T10:14:57;15.70;85.40
41922;DHT22;27609;51.002;5.354;2023-02-26T10:23:41;13.10;91.20
41922;DHT22;27609;51.002;5.354;2023-02-26T10:37:48;11.60;90.00
41922;DHT22;27609;51.002;5.354;2023-02-26T10:42:49;10.80;91.00
41922;DHT22;27609;51.002;5.354;2023-02-26T10:48:26;12.60;90.20
41922;DHT22;27609;51.002;5.354;2023-02-26T10:50:56;14.60;86.10
41922;DHT22;27609;51.002;5.354;2023-02-26T10:53:25;11.30;88.80
41922;DHT22;27609;51.002;5.354;2023-02-26T10:56:05;10.40;90.70
41922;DHT22;27609;51.002;5.354;2023-02-26T10:58:32;10.20;91.30
41922;DHT22;27609;51.002;5.354;2023-02-26T11:00:58;10.30;90.20
41922;DHT22;27609;51.002;5.354;2023-02-26T11:03:36;12.00;89.10
41922;DHT22;27609;51.002;5.354;2023-02-26T11:06:03;12.30;88.30
41922;DHT22;27609;51.002;5.354;2023-02-26T11:08:38;12.20;88.90
41922;DHT22;27609;51.002;5.354;2023-02-26T11:11:05;13.00;87.70
41922;DHT22;27609;51.002;5.354;2023-02-26T11:13:33;12.60;86.80
41922;DHT22;27609;51.002;5.354;2023-02-26T11:16:09;11.50;89.60
41922;DHT22;27609;51.002;5.354;2023-02-26T11:18:45;11.40;90.60
41922;DHT22;27609;51.002;5.354;2023-02-26T11:21:18;11.50;90.70
41922;DHT22;27609;51.002;5.354;2023-02-26T11:23:47;12.60;89.00
41922;DHT22;27609;51.002;5.354;2023-02-26T11:26:16;12.90;86.50
41922;DHT22;27609;51.002;5.354;2023-02-26T11:28:47;13.50;85.50
41922;DHT22;27609;51.002;5.354;2023-02-26T11:31:18;13.30;82.80
41922;DHT22;27609;51.002;5.354;2023-02-26T11:33:48;13.10;82.60
41922;DHT22;27609;51.002;5.354;2023-02-26T11:36:17;11.40;85.10
41922;DHT22;27609;51.002;5.354;2023-02-26T11:38:45;10.00;86.70
41922;DHT22;27609;51.002;5.354;2023-02-26T11:41:12;10.40;86.30
41922;DHT22;27609;51.002;5.354;2023-02-26T11:43:43;11.50;84.30
41922;DHT22;27609;51.002;5.354;2023-02-26T11:46:10;11.80;86.00
41922;DHT22;27609;51.002;5.354;2023-02-26T11:48:57;12.70;84.80
41922;DHT22;27609;51.002;5.354;2023-02-26T11:51:26;14.90;82.50
41922;DHT22;27609;51.002;5.354;2023-02-26T11:53:53;16.50;78.60
41922;DHT22;27609;51.002;5.354;2023-02-26T11:56:37;15.90;76.70
41922;DHT22;27609;51.002;5.354;2023-02-26T11:59:19;16.20;75.90
41922;DHT22;27609;51.002;5.354;2023-02-26T12:01:46;17.70;74.50
41922;DHT22;27609;51.002;5.354;2023-02-26T12:04:15;18.80;72.50
41922;DHT22;27609;51.002;5.354;2023-02-26T12:06:43;19.50;69.20
41922;DHT22;27609;51.002;5.354;2023-02-26T12:09:11;21.40;66.90
41922;DHT22;27609;51.002;5.354;2023-02-26T12:11:43;21.00;63.70
41922;DHT22;27609;51.002;5.354;2023-02-26T12:27:38;16.90;66.10
41922;DHT22;27609;51.002;5.354;2023-02-26T12:30:35;18.40;63.60
41922;DHT22;27609;51.002;5.354;2023-02-26T12:36:25;18.20;62.40
41922;DHT22;27609;51.002;5.354;2023-02-26T12:41:50;13.10;67.90
41922;DHT22;27609;51.002;5.354;2023-02-26T12:44:28;11.80;71.80
41922;DHT22;27609;51.002;5.354;2023-02-26T12:55:31;14.80;68.20
41922;DHT22;27609;51.002;5.354;2023-02-26T13:17:36;10.70;73.90
41922;DHT22;27609;51.002;5.354;2023-02-26T13:20:19;12.40;72.30
41922;DHT22;27609;51.002;5.354;2023-02-26T13:22:50;13.40;69.40
41922;DHT22;27609;51.002;5.354;2023-02-26T13:25:32;13.40;70.00
41922;DHT22;27609;51.002;5.354;2023-02-26T13:28:03;14.90;69.10
41922;DHT22;27609;51.002;5.354;2023-02-26T13:30:35;16.30;67.00
41922;DHT22;27609;51.002;5.354;2023-02-26T13:33:03;15.40;66.90
41922;DHT22;27609;51.002;5.354;2023-02-26T13:35:35;14.00;69.20
41922;DHT22;27609;51.002;5.354;2023-02-26T13:38:13;13.70;69.30
41922;DHT22;27609;51.002;5.354;2023-02-26T13:51:55;11.80;73.50
41922;DHT22;27609;51.002;5.354;2023-02-26T14:02:47;14.30;68.50
41922;DHT22;27609;51.002;5.354;2023-02-26T14:05:51;14.20;66.40
41922;DHT22;27609;51.002;5.354;2023-02-26T14:08:27;14.40;67.20
41922;DHT22;27609;51.002;5.354;2023-02-26T14:11:25;14.50;68.10
41922;DHT22;27609;51.002;5.354;2023-02-26T14:14:16;14.20;68.50
41922;DHT22;27609;51.002;5.354;2023-02-26T14:16:47;13.80;69.50
41922;DHT22;27609;51.002;5.354;2023-02-26T14:27:35;11.80;69.10
41922;DHT22;27609;51.002;5.354;2023-02-26T14:30:26;11.60;71.60
41922;DHT22;27609;51.002;5.354;2023-02-26T14:33:05;12.20;70.40
41922;DHT22;27609;51.002;5.354;2023-02-26T14:35:39;13.10;72.90
41922;DHT22;27609;51.002;5.354;2023-02-26T14:41:05;12.90;69.50
41922;DHT22;27609;51.002;5.354;2023-02-26T14:46:04;13.70;66.60
41922;DHT22;27609;51.002;5.354;2023-02-26T14:48:32;13.90;68.30
41922;DHT22;27609;51.002;5.354;2023-02-26T14:51:07;13.50;67.90
41922;DHT22;27609;51.002;5.354;2023-02-26T14:53:53;13.60;68.90
41922;DHT22;27609;51.002;5.354;2023-02-26T14:56:53;12.90;69.70
41922;DHT22;27609;51.002;5.354;2023-02-26T15:04:59;12.70;69.00
41922;DHT22;27609;51.002;5.354;2023-02-26T15:07:56;12.30;70.90
41922;DHT22;27609;51.002;5.354;2023-02-26T15:16:40;10.60;74.70
41922;DHT22;27609;51.002;5.354;2023-02-26T15:19:39;11.10;72.60
41922;DHT22;27609;51.002;5.354;2023-02-26T15:24:51;10.80;74.00
41922;DHT22;27609;51.002;5.354;2023-02-26T15:27:19;11.20;73.70
41922;DHT22;27609;51.002;5.354;2023-02-26T15:29:46;10.80;73.40
41922;DHT22;27609;51.002;5.354;2023-02-26T15:35:14;11.20;74.50
41922;DHT22;27609;51.002;5.354;2023-02-26T15:37:47;10.70;72.40
41922;DHT22;27609;51.002;5.354;2023-02-26T15:40:13;9.80;72.70
41922;DHT22;27609;51.002;5.354;2023-02-26T15:42:42;9.10;74.70
41922;DHT22;27609;51.002;5.354;2023-02-26T15:47:42;8.60;78.20
41922;DHT22;27609;51.002;5.354;2023-02-26T15:50:13;8.40;77.90
41922;DHT22;27609;51.002;5.354;2023-02-26T15:52:40;8.20;78.70
41922;DHT22;27609;51.002;5.354;2023-02-26T15:55:09;8.00;79.20
41922;DHT22;27609;51.002;5.354;2023-02-26T15:57:38;8.00;79.50
41922;DHT22;27609;51.002;5.354;2023-02-26T16:00:07;7.90;79.70
41922;DHT22;27609;51.002;5.354;2023-02-26T16:02:34;7.60;82.60
41922;DHT22;27609;51.002;5.354;2023-02-26T16:05:02;7.30;79.90
41922;DHT22;27609;51.002;5.354;2023-02-26T16:07:28;7.10;83.50
41922;DHT22;27609;51.002;5.354;2023-02-26T16:09:55;7.10;81.10
41922;DHT22;27609;51.002;5.354;2023-02-26T16:12:35;7.10;83.60
41922;DHT22;27609;51.002;5.354;2023-02-26T16:15:11;7.00;82.00
41922;DHT22;27609;51.002;5.354;2023-02-26T16:17:43;6.90;83.00
41922;DHT22;27609;51.002;5.354;2023-02-26T16:20:20;7.00;83.70
41922;DHT22;27609;51.002;5.354;2023-02-26T16:23:01;6.90;84.60
41922;DHT22;27609;51.002;5.354;2023-02-26T16:25:37;6.70;83.50
41922;DHT22;27609;51.002;5.354;2023-02-26T16:28:06;6.60;85.80
41922;DHT22;27609;51.002;5.354;2023-02-26T16:30:38;6.40;86.20
41922;DHT22;27609;51.002;5.354;2023-02-26T16:33:12;6.40;86.10
41922;DHT22;27609;51.002;5.354;2023-02-26T16:35:53;6.10;86.60
41922;DHT22;27609;51.002;5.354;2023-02-26T16:38:23;6.00;88.00
41922;DHT22;27609;51.002;5.354;2023-02-26T16:41:00;6.10;89.00
41922;DHT22;27609;51.002;5.354;2023-02-26T16:43:41;6.10;87.90
41922;DHT22;27609;51.002;5.354;2023-02-26T16:46:28;6.00;89.50
41922;DHT22;27609;51.002;5.354;2023-02-26T16:49:00;5.80;89.70
41922;DHT22;27609;51.002;5.354;2023-02-26T16:51:29;5.80;90.80
41922;DHT22;27609;51.002;5.354;2023-02-26T16:53:58;5.70;91.30
41922;DHT22;27609;51.002;5.354;2023-02-26T16:56:28;5.80;90.40
41922;DHT22;27609;51.002;5.354;2023-02-26T16:59:03;5.80;91.00
41922;DHT22;27609;51.002;5.354;2023-02-26T17:01:34;5.70;92.00
41922;DHT22;27609;51.002;5.354;2023-02-26T17:04:02;5.70;92.10
41922;DHT22;27609;51.002;5.354;2023-02-26T17:06:28;5.60;92.00
41922;DHT22;27609;51.002;5.354;2023-02-26T17:09:00;5.50;92.30
41922;DHT22;27609;51.002;5.354;2023-02-26T17:11:30;5.40;92.50
41922;DHT22;27609;51.002;5.354;2023-02-26T17:16:35;5.40;92.40
41922;DHT22;27609;51.002;5.354;2023-02-26T17:19:01;5.40;93.60
41922;DHT22;27609;51.002;5.354;2023-02-26T17:21:27;5.40;94.20
41922;DHT22;27609;51.002;5.354;2023-02-26T17:23:53;5.20;94.30
41922;DHT22;27609;51.002;5.354;2023-02-26T17:26:19;5.20;94.60
41922;DHT22;27609;51.002;5.354;2023-02-26T17:28:45;5.20;95.60
41922;DHT22;27609;51.002;5.354;2023-02-26T17:31:11;5.20;95.40
41922;DHT22;27609;51.002;5.354;2023-02-26T17:33:40;5.10;96.00
41922;DHT22;27609;51.002;5.354;2023-02-26T17:36:09;5.00;96.20
41922;DHT22;27609;51.002;5.354;2023-02-26T17:38:35;5.00;96.30
41922;DHT22;27609;51.002;5.354;2023-02-26T17:41:01;5.00;96.80
41922;DHT22;27609;51.002;5.354;2023-02-26T17:43:27;4.90;97.10
41922;DHT22;27609;51.002;5.354;2023-02-26T17:45:53;4.90;97.20
41922;DHT22;27609;51.002;5.354;2023-02-26T17:48:18;4.80;97.90
41922;DHT22;27609;51.002;5.354;2023-02-26T17:50:49;4.70;97.90
41922;DHT22;27609;51.002;5.354;2023-02-26T17:53:15;4.70;98.70
41922;DHT22;27609;51.002;5.354;2023-02-26T17:55:41;4.60;98.00
41922;DHT22;27609;51.002;5.354;2023-02-26T17:58:16;4.60;98.80
41922;DHT22;27609;51.002;5.354;2023-02-26T18:00:42;4.60;99.30
41922;DHT22;27609;51.002;5.354;2023-02-26T18:03:10;4.50;99.90
41922;DHT22;27609;51.002;5.354;2023-02-26T18:05:36;4.50;99.90
41922;DHT22;27609;51.002;5.354;2023-02-26T18:08:16;4.30;99.90
41922;DHT22;27609;51.002;5.354;2023-02-26T18:10:43;4.30;99.90
41922;DHT22;27609;51.002;5.354;2023-02-26T18:13:10;4.20;99.90
41922;DHT22;27609;51.002;5.354;2023-02-26T18:15:35;4.10;99.90
41922;DHT22;27609;51.002;5.354;2023-02-26T18:18:01;4.00;99.90
41922;DHT22;27609;51.002;5.354;2023-02-26T18:20:27;4.00;99.90
41922;DHT22;27609;51.002;5.354;2023-02-26T18:22:54;3.90;99.90
41922;DHT22;27609;51.002;5.354;2023-02-26T18:25:20;3.80;99.90
41922;DHT22;27609;51.002;5.354;2023-02-26T18:27:50;3.70;99.90
41922;DHT22;27609;51.002;5.354;2023-02-26T18:30:24;3.60;99.90
41922;DHT22;27609;51.002;5.354;2023-02-26T18:32:50;3.60;99.90
41922;DHT22;27609;51.002;5.354;2023-02-26T18:35:16;3.50;99.90
41922;DHT22;27609;51.002;5.354;2023-02-26T18:37:43;3.40;99.90
41922;DHT22;27609;51.002;5.354;2023-02-26T18:40:19;3.30;99.90
41922;DHT22;27609;51.002;5.354;2023-02-26T18:42:49;3.40;99.90
41922;DHT22;27609;51.002;5.354;2023-02-26T18:45:15;3.40;99.90
41922;DHT22;27609;51.002;5.354;2023-02-26T18:47:41;3.30;99.90
41922;DHT22;27609;51.002;5.354;2023-02-26T18:50:10;3.30;99.90
41922;DHT22;27609;51.002;5.354;2023-02-26T18:52:36;3.20;99.90
41922;DHT22;27609;51.002;5.354;2023-02-26T18:55:01;3.20;99.90
41922;DHT22;27609;51.002;5.354;2023-02-26T18:57:28;3.20;99.90
41922;DHT22;27609;51.002;5.354;2023-02-26T18:59:54;3.20;99.90
41922;DHT22;27609;51.002;5.354;2023-02-26T19:02:20;3.20;99.90